This is the latest recevied weather packets stored in our database for station/object BadBuchau. If no packets are shown the sender has not sent any weather packets the latest 10 day(s).
| Time | Temp. | Humidity | Pressure | Rain* | Wind** | Luminosity | Snow |
|---|---|---|---|---|---|---|---|
| 1777678330 | 8.33° C | 64% | 1023.2 hPa | 0 mm | - | - | - |
| 1777676530 | 8.89° C | 62% | 1023.2 hPa | 0 mm | - | - | - |
| 1777674730 | 9.44° C | 60% | 1023.4 hPa | 0 mm | - | - | - |
| 1777672931 | 11.11° C | 54% | 1023.3 hPa | 0 mm | - | - | - |
| 1777671130 | 12.78° C | 49% | 1023.3 hPa | 0 mm | - | - | - |
| 1777669330 | 12.78° C | 47% | 1023.3 hPa | 0 mm | - | - | - |
| 1777667529 | 13.89° C | 46% | 1023.5 hPa | 0 mm | - | - | - |
| 1777665731 | 15° C | 43% | 1023.5 hPa | 0 mm | - | - | - |
| 1777663929 | 15.56° C | 40% | 1023.3 hPa | 0 mm | - | - | - |
| 1777662130 | 16.11° C | 38% | 1023.1 hPa | 0 mm | - | - | - |
| 1777660330 | 17.22° C | 36% | 1022.8 hPa | 0 mm | - | - | - |
| 1777658531 | 18.89° C | 32% | 1022.8 hPa | 0 mm | - | - | - |
| 1777656731 | 20° C | 29% | 1022.8 hPa | 0 mm | - | - | - |
| 1777654930 | 20.56° C | 28% | 1022.6 hPa | 0 mm | - | - | - |
| 1777653129 | 21.11° C | 26% | 1022.9 hPa | 0 mm | - | - | - |
| 1777651330 | 21.67° C | 25% | 1023 hPa | 0 mm | - | - | - |
| 1777649530 | 21.67° C | 24% | 1023.1 hPa | 0 mm | - | - | - |
| 1777647730 | 21.67° C | 24% | 1023.1 hPa | 0 mm | - | - | - |
| 1777645930 | 21.67° C | 24% | 1023.5 hPa | 0 mm | - | - | - |
| 1777644130 | 21.67° C | 24% | 1023.7 hPa | 0 mm | - | - | - |
| 1777642330 | 21.11° C | 23% | 1024 hPa | 0 mm | - | - | - |
| 1777640530 | 20.56° C | 24% | 1024.5 hPa | 0 mm | - | - | - |
| 1777638736 | 19.44° C | 24% | 1024.7 hPa | 0 mm | - | - | - |
| 1777636931 | 19.44° C | 25% | 1025 hPa | 0 mm | - | - | - |
| 1777635130 | 18.89° C | 27% | 1025.3 hPa | 0 mm | - | - | - |
* Rain since midnight (hover to see other rain measurements)
** Current wind speed in m/s (hover to see current wind gust speed)